Main page
METAR-TAF:

METAR-TAF

Airports :

Monroe Municipal Airport

Monroe, Wisconsin, United States

latitude: 42-36-54N, longitude: 089-35-27W, elevation: 1086 ft

Current weather observation

The report was made 33 minutes ago, at 11:55 UTC
Wind 12 mph from the West
Temperature 32°F
Humidity 100%
Pressure 29.70 in. Hg
Visibility: 10 miles
Clear sky

METAR: KEFT 231155Z AUTO 28010KT 10SM CLR 00/00 A2970 RMK AO2 T10021002 10045 21005

Time: 06:28 (12:28 UTC)


TAF: missing

Weather observations and forecasts of more than 4000 airports (METAR and TAF reports).

The available stations are represented by yellow and red dots on the map.

Hover mouse over dot to see the name of the station.

Then click to see weather observations and forecasts.

To change the map : click on the green buttons with a black cross to zoom in, on the green button with a dash to zoom out, or on the green arrows for adjacent maps.


METAR-TAF: